Flight Track Log - Related Links

Times and Time Zones

All times are in EDT time to prevent confusion due to time zone crossing. See the N612CT flight status page for this flight to view local times or setup timezone preferences in your user account.

Time Position Orientation Groundspeed Altitude Reporting Facility
EDT Latitude Longitude Course Direction KTS MPH feet Rate Location/Type
Mon 07:42:00 PM 30.1360 -84.1856 128° Southeast  Level Estimated
Mon 07:43:00 PM 30.1408 -84.1286 84° East  Level FlightAware
Mon 07:44:00 PM 30.1456 -84.0715 84° East  Level FlightAware
Mon 07:45:00 PM 30.1503 -84.0145 84° East  Level FlightAware
Mon 07:46:00 PM 30.1061 -83.9886 133° Southeast  Level Estimated
Mon 07:47:00 PM 30.0942 -83.9331 104° East  Level FlightAware
Mon 07:48:00 PM 30.0823 -83.8775 104° East  Level FlightAware
Mon 07:49:00 PM 30.0704 -83.8219 104° East  Level FlightAware
Mon 07:50:00 PM 30.0256 -83.7975 130° Southeast  Level Estimated
Mon 07:51:00 PM 29.9982 -83.7498 124° Southeast  Level FlightAware
Mon 07:51:55 PM 30.1381 -83.7908 124° Southeast 177 204 9,000  Level Jacksonville Center
Mon 07:52:00 PM 29.9708 -83.7021 124° Southeast  Level FlightAware
Mon 07:52:55 PM 30.1092 -83.7497 129° Southeast 172 198 9,000  Level Jacksonville Center
Mon 07:53:00 PM 29.9434 -83.6544 124° Southeast  Level FlightAware
Mon 07:53:55 PM 30.0781 -83.7064 130° Southeast 172 198 9,000  Level Jacksonville Center
Mon 07:54:00 PM 29.9160 -83.6068 124° Southeast  Level FlightAware
Mon 07:54:55 PM 30.0492 -83.6675 131° Southeast 167 192 9,000  Level Jacksonville Center
Mon 07:55:00 PM 29.8886 -83.5592 124° Southeast  Level FlightAware
Mon 07:55:55 PM 30.0200 -83.6267 130° Southeast 162 186 9,000  Level Jacksonville Center
Mon 07:56:00 PM 29.8611 -83.5117 124° Southeast  Level FlightAware
Mon 07:56:55 PM 29.9892 -83.5833 129° Southeast 162 186 9,000  Level Jacksonville Center
Mon 07:57:55 PM 29.9581 -83.5400 130° Southeast 162 186 9,000  Level Jacksonville Center
Mon 07:58:55 PM 29.9289 -83.5014 131° Southeast 162 186 9,000  Level Jacksonville Center
Mon 07:59:55 PM 29.8978 -83.4581 130° Southeast 162 186 9,000  Level Jacksonville Center
Mon 08:00:55 PM 29.8667 -83.4147 130° Southeast 162 186 9,000  Level Jacksonville Center
Mon 08:01:55 PM 29.8439 -83.3692 120° Southeast 162 186 9,000  Level Jacksonville Center
Mon 08:02:55 PM 29.8189 -83.3211 121° Southeast 162 186 9,000  Level Jacksonville Center
Mon 08:03:55 PM 29.7961 -83.2756 120° Southeast 172 198 9,000  Level Jacksonville Center
Mon 08:04:55 PM 29.7733 -83.2253 118° Southeast 172 198 9,000  Level Jacksonville Center
Mon 08:05:48 PM 29.7483 -83.1797 122° Southeast 173 199 9,000  Level Jacksonville Center
Mon 08:05:55 PM 29.7483 -83.1772 90° East 172 198 9,000  Level Jacksonville Center
Mon 08:06:19 PM 29.7339 -83.1533 125° Southeast 173 199 9,000  Level Jacksonville Center
Mon 08:06:55 PM 29.7233 -83.1294 117° Southeast 167 192 9,000  Level Jacksonville Center
Mon 08:07:20 PM 29.7089 -83.1053 125° Southeast 174 200 9,000  Level Jacksonville Center
Mon 08:07:55 PM 29.7006 -83.0839 114° Southeast 167 192 9,000  Level Jacksonville Center
Mon 08:08:20 PM 29.6839 -83.0600 129° Southeast 174 200 9,000  Level Jacksonville Center
Mon 08:08:55 PM 29.6736 -83.0361 116° Southeast 167 192 9,000  Level Jacksonville Center
Mon 08:09:21 PM 29.6589 -83.0122 125° Southeast 171 197 9,000  Level Jacksonville Center
Mon 08:09:55 PM 29.6464 -82.9931 127° Southeast 167 192 9,000  Level Jacksonville Center
Mon 08:10:15 PM 29.6297 -82.9739 135° Southeast 171 197 9,000  Level Jacksonville Center
Mon 08:10:55 PM 29.6172 -82.9500 121° Southeast 173 199 9,000  Level Jacksonville Center
Mon 08:11:22 PM 29.5942 -82.9283 141° Southeast 175 201 9,000  Level Jacksonville Center
Mon 08:11:55 PM 29.5797 -82.9142 140° Southeast 173 199 9,000  Level Jacksonville Center
Mon 08:12:23 PM 29.5525 -82.8925 145° Southeast 179 206 9,000  Level Jacksonville Center
Mon 08:12:55 PM 29.5336 -82.8831 156° South 179 206 9,000  Level Jacksonville Center
Mon 08:13:23 PM 29.5086 -82.8686 153° Southeast 174 200 9,000  Level Jacksonville Center
Mon 08:13:55 PM 29.4856 -82.8544 152° Southeast 179 206 9,000  Level Jacksonville Center
Mon 08:14:24 PM 29.4628 -82.8425 155° Southeast 176 203 9,000  Level Jacksonville Center
Mon 08:14:55 PM 29.4419 -82.8306 153° Southeast 179 206 9,000  Level Jacksonville Center
Mon 08:15:24 PM 29.4189 -82.8186 156° South 177 204 9,000  Level Jacksonville Center
Mon 08:16:25 PM 29.3731 -82.7925 154° Southeast 178 205 9,000  Level Jacksonville Center
Mon 08:17:26 PM 29.3333 -82.7686 152° Southeast 174 200 9,000  Level Jacksonville Center
Mon 08:18:26 PM 29.2894 -82.7450 155° Southeast 174 200 9,000  Level Jacksonville Center
Mon 08:19:27 PM 29.2414 -82.7164 153° Southeast 176 203 9,000  Level Jacksonville Center
Mon 08:20:27 PM 29.1975 -82.6928 155° Southeast 177 204 9,000  Level Jacksonville Center
Mon 08:21:28 PM 29.1536 -82.6692 155° Southeast 175 201 9,000  Level Jacksonville Center
Mon 08:22:29 PM 29.1117 -82.6453 154° Southeast 173 199 9,000  Level Jacksonville Center
Mon 08:23:29 PM 29.0681 -82.6194 153° Southeast 174 200 9,000  Level Jacksonville Center
Mon 08:24:30 PM 29.0239 -82.5933 153° Southeast 176 203 9,000  Level Jacksonville Center
Mon 08:25:31 PM 28.9758 -82.5675 155° Southeast 177 204 9,000  Level Jacksonville Center
Mon 08:26:31 PM 28.9342 -82.5461 156° South 170 196 9,000  Level Jacksonville Center
Mon 08:27:26 PM 28.8944 -82.5250 155° Southeast 170 196 9,000  Level Jacksonville Center
Mon 08:29:03 PM 28.8167 -82.4833 155° Southeast 176 203 9,000  Level Tampa TRACON
Mon 08:30:03 PM 28.7833 -82.4500 139° Southeast 175 201 9,000  Level Tampa TRACON
Mon 08:31:03 PM 28.7333 -82.4333 164° South 180 207 9,000  Level Tampa TRACON
Mon 08:32:03 PM 28.7000 -82.4000 139° Southeast 177 204 9,000  Level Tampa TRACON
Mon 08:33:03 PM 28.6500 -82.3833 164° South 178 205 9,000  Level Tampa TRACON
Mon 08:34:03 PM 28.6000 -82.3500 150° Southeast 182 209 9,000  Level Tampa TRACON
Mon 08:35:04 PM 28.5500 -82.3333 164° South 181 208 9,000  Level Tampa TRACON
Mon 08:36:04 PM 28.5167 -82.3000 139° Southeast 179 206 9,000  Level Tampa TRACON
Mon 08:37:04 PM 28.4667 -82.2833 164° South 176 203 9,000  Level Tampa TRACON
Mon 08:39:00 PM 28.3852 -82.2354 153° Southeast  Level FlightAware
Mon 08:39:10 PM 28.3667 -82.2500 153° Southeast 183 211 9,000  Level Tampa TRACON
Mon 08:40:10 PM 28.3167 -82.2333 164° South 181 208 9,000  Level Tampa TRACON
Mon 08:41:10 PM 28.2667 -82.2167 164° South 180 207 9,000  Level Tampa TRACON
Mon 08:42:10 PM 28.2167 -82.2167 180° South 181 208 9,000  Level Tampa TRACON
Mon 08:43:10 PM 28.1833 -82.2000 156° South 179 206 9,000  Level Tampa TRACON
Mon 08:45:10 PM 28.0833 -82.1833 172° South 177 204 9,000  Level Tampa TRACON
Mon 08:46:10 PM 28.0333 -82.1667 164° South 179 206 9,000  Level Tampa TRACON
Mon 08:47:10 PM 27.9833 -82.1667 180° South 180 207 9,000  Level Tampa TRACON
Mon 08:48:10 PM 27.9333 -82.1500 164° South 179 206 9,000  Level Tampa TRACON
Mon 08:50:28 PM 27.8181 -82.1247 169° South 166 191 9,000  Level Miami Center
Mon 08:51:28 PM 27.7728 -82.1108 165° South 171 197 9,000  Level Miami Center
Mon 08:52:28 PM 27.7231 -82.1017 171° South 177 204 9,000  Level Miami Center
Mon 08:53:28 PM 27.6794 -82.0925 169° South 177 204 9,000  Level Miami Center
Mon 08:54:28 PM 27.6294 -82.0881 175° South 183 211 9,000  Level Miami Center
Mon 08:55:28 PM 27.5778 -82.0808 173° South 175 201 9,000  Level Miami Center
Mon 08:56:28 PM 27.5258 -82.0739 173° South 180 207 9,000 -150 Level Miami Center
Mon 08:57:28 PM 27.4758 -82.0669 173° South 180 207 8,700 -400 Descending Miami Center
Mon 08:58:28 PM 27.4219 -82.0597 173° South 180 207 8,200 -500 Descending Miami Center
Mon 08:59:28 PM 27.3678 -82.0528 174° South 185 213 7,700 -500 Descending Miami Center
Mon 09:00:28 PM 27.3181 -82.0458 173° South 190 219 7,200 -350 Descending Miami Center
Mon 09:01:28 PM 27.2661 -82.0411 175° South 190 219 7,000 -100 Descending Miami Center
Mon 09:02:28 PM 27.2183 -82.0342 173° South 184 212 7,000  Level Miami Center
Mon 09:03:28 PM 27.1725 -82.0275 173° South 178 205 7,000  Level Miami Center
Mon 09:04:28 PM 27.1250 -82.0208 173° South 178 205 7,000  Level Miami Center
Mon 09:05:28 PM 27.0772 -82.0139 173° South 178 205 7,000  Level Miami Center
Mon 09:06:28 PM 27.0314 -82.0072 173° South 178 205 7,000  Level Miami Center
Mon 09:07:28 PM 26.9836 -82.0028 175° South 178 205 7,000  Level Miami Center
Mon 09:08:28 PM 26.9378 -81.9961 173° South 178 205 7,000  Level Miami Center
Mon 09:09:28 PM 26.8925 -81.9847 167° South 178 205 7,000  Level Miami Center
Mon 09:10:28 PM 26.8511 -81.9736 167° South 173 199 7,000  Level Miami Center
Mon 09:12:00 PM 26.7814 -81.9514 164° South  Level FlightAware
Mon 09:19:00 PM 26.4616 -81.8571 167° South  Level FlightAware
Mon 09:20:00 PM 26.4157 -81.8446 165° South  Level FlightAware
Mon 09:21:00 PM 26.3702 -81.8306 165° South  Level FlightAware
Mon 09:22:00 PM 26.3247 -81.8165 165° South  Level FlightAware
Mon 09:23:00 PM 26.2791 -81.8025 165° South  Level FlightAware
Mon 09:24:00 PM 26.2336 -81.7885 165° South  Level FlightAware
Mon 09:25:00 PM 26.1877 -81.7761 167° South  Level FlightAware
Mon 09:26:00 PM 26.1500 -81.7667 167° South  Level FlightAware
Mon 09:27:00 PM 26.1524 -81.7756 167° South  Level Estimated
Mon 09:28:00 PM 26.1524 -81.7756 167° South  Level Estimated
Mon 09:29:00 PM 26.1524 -81.7756 167° South  Level Estimated
Mon 09:30:00 PM 26.1524 -81.7756 167° South  Level Estimated
Mon 09:31:00 PM 26.1524 -81.7756 167° South  Level Estimated
Mon 09:32:00 PM 26.1524 -81.7756 167° South  Level Estimated
Mon 09:33:00 PM 26.1524 -81.7756 167° South  Level Estimated
Mon 09:34:00 PM 26.1524 -81.7756 167° South  Level Estimated
Mon 09:35:00 PM 26.1524 -81.7756 167° South  Level Estimated
Mon 09:36:00 PM 26.1524 -81.7756 167° South  Level Estimated
Mon 09:37:00 PM 26.1524 -81.7756 167° South  Level Estimated
Mon 09:38:00 PM 26.1524 -81.7756 167° South  Level Estimated
Mon 09:39:00 PM 26.1524 -81.7756 167° South  Level Estimated
Mon 09:40:00 PM 26.1524 -81.7756 167° South  Level Estimated
Mon 09:41:00 PM 26.1524 -81.7756 167° South  Level Estimated
Mon 09:42:00 PM 26.1524 -81.7756 167° South  Level Estimated
Mon 09:43:00 PM 26.1524 -81.7756 167° South  Level Estimated
Mon 09:44:00 PM 26.1524 -81.7756 167° South  Level Estimated

Login

Don't have an account? Register now (free) for customized features, flight alerts, and more!